Time;durP1;ratioP1;P1;durP2;ratioP2;P2;SDS_P1;SDS_P2;PMS_P1;PMS_P2;Temp;Humidity;BMP_temperature;BMP_pressure;BME280_temperature;BME280_humidity;BME280_pressure;Samples;Min_cycle;Max_cycle;Signal;HPM_P1;HPM_P2
2022/08/07 00:00:17;;;;;;;6.22;1.60;;;24.70;35.50;;;;;;7376594;19;20117;-89
2022/08/07 00:02:46;;;;;;;3.20;1.30;;;24.60;35.50;;;;;;7383076;19;20018;-89
2022/08/07 00:05:18;;;;;;;3.70;1.70;;;24.60;35.70;;;;;;7381304;19;20084;-89
2022/08/07 00:07:49;;;;;;;142.05;8.43;;;24.60;35.90;;;;;;7378185;19;20035;-89
2022/08/07 00:10:17;;;;;;;;;;;24.60;35.70;;;;;;7397101;19;20022;-89
2022/08/07 00:12:46;;;;;;;5.00;1.73;;;24.60;35.90;;;;;;7376373;19;19925;-89
2022/08/07 00:15:15;;;;;;;7.43;1.60;;;24.60;35.90;;;;;;7380074;19;20032;-89
2022/08/07 00:17:44;;;;;;;2.75;1.33;;;24.60;35.80;;;;;;7374551;19;20085;-89
2022/08/07 00:20:13;;;;;;;4.30;1.70;;;24.60;35.90;;;;;;7377292;19;20022;-89
2022/08/07 00:22:41;;;;;;;8.50;1.52;;;24.40;35.80;;;;;;7380229;19;20106;-89
2022/08/07 00:25:16;;;;;;;7.63;1.42;;;24.30;35.90;;;;;;7401301;19;20132;-89
2022/08/07 00:27:44;;;;;;;6.65;1.70;;;24.30;36.20;;;;;;7389854;19;20015;-89
2022/08/07 00:30:14;;;;;;;8.48;1.10;;;24.40;36.00;;;;;;7393791;19;20114;-90
2022/08/07 00:32:43;;;;;;;2.50;1.60;;;24.30;36.10;;;;;;7383950;19;20058;-90
2022/08/07 00:35:12;;;;;;;3.95;1.30;;;24.30;36.30;;;;;;7381441;19;20023;-89
2022/08/07 00:37:41;;;;;;;132.90;4.30;;;24.30;36.40;;;;;;7380524;19;20166;-89
2022/08/07 00:40:10;;;;;;;2.20;1.45;;;24.20;36.20;;;;;;7405404;19;20089;-89
2022/08/07 00:42:42;;;;;;;4.18;1.35;;;24.20;36.40;;;;;;7382450;19;20035;-89
2022/08/07 00:45:12;;;;;;;2.85;1.20;;;24.10;36.60;;;;;;7379479;19;20022;-89
2022/08/07 00:47:41;;;;;;;2.85;1.33;;;23.90;36.80;;;;;;7378065;19;20056;-90
2022/08/07 00:50:10;;;;;;;1.73;1.08;;;23.90;37.10;;;;;;7385107;19;20014;-90
2022/08/07 00:52:39;;;;;;;27.38;4.75;;;23.80;37.10;;;;;;7385865;19;20026;-90
2022/08/07 00:55:12;;;;;;;7.30;1.25;;;23.80;37.00;;;;;;7408722;19;20018;-90
2022/08/07 00:57:44;;;;;;;4.90;2.08;;;23.90;37.20;;;;;;7383958;19;20426;-91
2022/08/07 01:00:14;;;;;;;1.65;1.30;;;23.90;37.00;;;;;;7390824;19;20015;-91
2022/08/07 01:02:44;;;;;;;2.70;1.40;;;23.80;37.00;;;;;;7408088;19;20020;-91
2022/08/07 01:05:16;;;;;;;4.28;1.63;;;23.80;37.10;;;;;;7409438;19;20011;-91
2022/08/07 01:07:45;;;;;;;5.72;1.50;;;23.70;37.20;;;;;;7405635;19;20003;-90
2022/08/07 01:10:14;;;;;;;4.68;1.35;;;23.70;37.30;;;;;;7418735;19;20035;-91
2022/08/07 01:12:46;;;;;;;8.10;1.30;;;23.60;37.40;;;;;;7395009;19;20007;-90
2022/08/07 01:15:15;;;;;;;2.95;1.52;;;23.60;37.50;;;;;;7399976;19;20010;-90
2022/08/07 01:17:44;;;;;;;3.90;1.60;;;23.60;37.50;;;;;;7399248;19;20007;-90
2022/08/07 01:20:15;;;;;;;3.35;1.40;;;23.70;37.50;;;;;;7399240;19;20014;-90
2022/08/07 01:22:47;;;;;;;4.65;1.35;;;23.60;37.50;;;;;;7392797;19;20014;-90
2022/08/07 01:25:17;;;;;;;6.45;1.50;;;23.70;37.70;;;;;;7409308;19;20014;-91
2022/08/07 01:27:46;;;;;;;4.82;1.60;;;23.60;37.70;;;;;;7392203;19;20024;-90
2022/08/07 01:30:15;;;;;;;5.47;1.65;;;23.60;37.60;;;;;;7390822;19;20017;-90
2022/08/07 01:32:44;;;;;;;2.13;1.52;;;23.60;37.90;;;;;;7393115;19;20010;-90
2022/08/07 01:35:13;;;;;;;5.40;1.60;;;23.50;37.80;;;;;;7390689;19;20003;-90
2022/08/07 01:37:47;;;;;;;4.95;1.60;;;23.50;38.10;;;;;;7391574;19;20010;-90
2022/08/07 01:40:21;;;;;;;4.60;1.77;;;23.50;38.20;;;;;;7412807;19;20018;-90
2022/08/07 01:42:49;;;;;;;4.60;1.98;;;23.50;38.10;;;;;;7394691;19;20043;-89
2022/08/07 01:45:20;;;;;;;5.05;1.50;;;23.40;38.20;;;;;;7402893;19;20009;-90
2022/08/07 01:47:49;;;;;;;6.68;1.50;;;23.40;38.40;;;;;;7400479;19;20006;-89
2022/08/07 01:50:18;;;;;;;2.10;1.30;;;23.40;38.40;;;;;;7395209;19;20011;-89
2022/08/07 01:52:50;;;;;;;2.13;1.38;;;23.40;38.60;;;;;;7389264;19;20014;-88
2022/08/07 01:55:22;;;;;;;3.85;1.33;;;23.40;38.40;;;;;;7410228;19;20015;-88
2022/08/07 01:57:54;;;;;;;6.28;1.60;;;23.30;38.50;;;;;;7390163;19;20011;-89
2022/08/07 02:00:23;;;;;;;2.35;1.48;;;23.40;38.60;;;;;;7390609;19;20018;-89
2022/08/07 02:02:55;;;;;;;4.88;1.60;;;23.40;38.60;;;;;;7389023;19;20074;-88
2022/08/07 02:05:29;;;;;;;5.57;1.92;;;23.30;38.70;;;;;;7404981;19;20018;-89
2022/08/07 02:08:05;;;;;;;3.33;1.70;;;23.10;39.00;;;;;;7405457;19;20003;-88
2022/08/07 02:10:35;;;;;;;4.75;1.48;;;23.00;39.10;;;;;;7404019;19;20014;-85
2022/08/07 02:13:06;;;;;;;3.40;1.50;;;23.00;39.30;;;;;;7422824;19;20029;-87
2022/08/07 02:15:40;;;;;;;3.80;1.25;;;23.00;39.40;;;;;;7393575;19;20039;-89
2022/08/07 02:18:12;;;;;;;5.22;1.60;;;22.90;39.50;;;;;;7412445;19;20011;-89
2022/08/07 02:20:43;;;;;;;3.30;1.55;;;22.90;39.70;;;;;;7413960;19;20010;-89
2022/08/07 02:23:16;;;;;;;7.28;1.80;;;23.00;39.80;;;;;;7412442;19;20009;-90
2022/08/07 02:25:47;;;;;;;2.35;1.60;;;22.90;39.70;;;;;;7413831;19;20003;-87
2022/08/07 02:28:17;;;;;;;2.85;1.75;;;23.00;40.40;;;;;;7436498;19;20007;-89
2022/08/07 02:30:46;;;;;;;3.45;1.63;;;22.80;39.80;;;;;;7412433;19;20015;-90
2022/08/07 02:33:17;;;;;;;3.45;1.60;;;22.90;40.00;;;;;;7413414;19;20019;-90
2022/08/07 02:35:48;;;;;;;2.33;1.67;;;22.80;40.10;;;;;;7411874;19;20034;-90
2022/08/07 02:38:20;;;;;;;4.25;1.52;;;22.60;40.30;;;;;;7406787;19;20006;-89
2022/08/07 02:40:50;;;;;;;5.68;1.45;;;22.80;40.40;;;;;;7408981;19;20022;-88
2022/08/07 02:43:19;;;;;;;3.03;1.70;;;22.70;40.30;;;;;;7430870;19;20014;-89
2022/08/07 02:45:50;;;;;;;6.45;1.45;;;22.70;40.30;;;;;;7406455;19;20138;-89
2022/08/07 02:48:19;;;;;;;3.00;1.50;;;22.60;40.40;;;;;;7411806;19;20007;-89
2022/08/07 02:50:53;;;;;;;4.80;1.77;;;22.60;40.60;;;;;;7410443;19;20015;-88
2022/08/07 02:53:28;;;;;;;1.98;1.38;;;22.60;40.60;;;;;;7409926;19;20015;-88
2022/08/07 02:55:59;;;;;;;2.75;1.45;;;22.60;40.50;;;;;;7408709;19;19998;-88
2022/08/07 02:58:29;;;;;;;;;;;22.70;40.60;;;;;;7421501;19;20006;-80
2022/08/07 03:01:00;;;;;;;2.25;1.55;;;22.70;40.80;;;;;;7432172;19;19914;-88
2022/08/07 03:03:32;;;;;;;3.13;1.67;;;22.60;40.90;;;;;;7412286;19;20030;-88
2022/08/07 03:06:02;;;;;;;5.20;1.38;;;22.60;41.00;;;;;;7410218;19;20007;-88
2022/08/07 03:08:35;;;;;;;2.20;1.40;;;22.60;41.00;;;;;;7408841;19;20022;-89
2022/08/07 03:11:04;;;;;;;4.35;1.40;;;22.60;41.10;;;;;;7393883;19;20010;-88
2022/08/07 03:13:33;;;;;;;6.68;1.70;;;22.50;41.20;;;;;;7391933;19;20018;-86
2022/08/07 03:16:03;;;;;;;5.65;1.63;;;22.50;41.20;;;;;;7415478;19;20014;-88
2022/08/07 03:18:32;;;;;;;3.92;1.85;;;22.60;41.40;;;;;;7391063;19;20063;-89
2022/08/07 03:21:01;;;;;;;4.82;1.60;;;22.50;41.30;;;;;;7390308;19;20015;-89
2022/08/07 03:23:34;;;;;;;2.10;1.52;;;22.50;41.40;;;;;;7393723;19;20064;-88
2022/08/07 03:26:04;;;;;;;4.35;1.90;;;22.60;41.40;;;;;;7392024;19;20286;-89
2022/08/07 03:28:34;;;;;;;5.40;1.77;;;22.50;41.50;;;;;;7391314;19;20014;-85
2022/08/07 03:33:48;;;;;;;3.88;1.67;;;22.40;41.90;;;;;;7378307;19;20015;-88
2022/08/07 03:36:18;;;;;;;3.22;1.60;;;22.20;42.00;;;;;;7377578;19;20026;-88
2022/08/07 03:38:51;;;;;;;8.57;1.90;;;22.30;42.10;;;;;;7381419;19;20044;-88
2022/08/07 03:41:20;;;;;;;6.68;1.90;;;22.10;42.40;;;;;;7380965;19;20038;-88
2022/08/07 03:43:49;;;;;;;8.57;3.22;;;22.10;42.50;;;;;;7378488;19;20028;-88
2022/08/07 03:46:18;;;;;;;4.28;2.17;;;22.10;42.50;;;;;;7401683;19;20089;-88
2022/08/07 03:48:47;;;;;;;4.03;1.60;;;22.20;42.50;;;;;;7380531;19;20018;-89
2022/08/07 03:51:17;;;;;;;3.45;1.90;;;22.20;42.50;;;;;;7384690;19;20047;-89
2022/08/07 03:53:49;;;;;;;3.85;1.67;;;22.30;43.10;;;;;;7386639;19;20031;-90
2022/08/07 03:56:22;;;;;;;3.40;1.55;;;22.30;42.50;;;;;;7394730;19;20123;-90
2022/08/07 03:58:52;;;;;;;5.15;1.92;;;22.30;42.40;;;;;;7393917;19;20018;-89
2022/08/07 04:01:22;;;;;;;4.45;2.00;;;22.30;42.50;;;;;;7409401;19;20336;-88
2022/08/07 04:03:51;;;;;;;5.55;2.10;;;22.20;42.40;;;;;;7381283;19;20053;-88
2022/08/07 04:06:20;;;;;;;5.40;2.42;;;22.30;42.60;;;;;;7391039;19;20035;-88
2022/08/07 04:08:53;;;;;;;4.32;2.50;;;22.30;42.50;;;;;;7384194;19;20138;-88
2022/08/07 04:11:21;;;;;;;7.80;2.63;;;22.20;42.50;;;;;;7382978;19;20060;-88
2022/08/07 04:13:52;;;;;;;4.93;2.17;;;22.20;42.80;;;;;;7383140;19;20063;-88
2022/08/07 04:16:22;;;;;;;4.03;2.70;;;21.90;43.00;;;;;;7408107;19;20027;-89
2022/08/07 04:18:50;;;;;;;5.57;2.70;;;21.70;43.50;;;;;;7380122;19;20086;-88
2022/08/07 04:21:19;;;;;;;3.80;2.25;;;21.80;44.20;;;;;;7378975;19;20022;-88
2022/08/07 04:23:54;;;;;;;8.43;2.50;;;21.80;43.50;;;;;;7379481;19;20014;-88
2022/08/07 04:26:23;;;;;;;3.97;2.40;;;21.60;43.60;;;;;;7382402;19;20031;-88
2022/08/07 04:28:52;;;;;;;4.57;2.40;;;21.60;44.00;;;;;;7387301;19;20426;-89
2022/08/07 04:31:24;;;;;;;5.22;2.03;;;21.60;44.00;;;;;;7409241;19;20018;-89
2022/08/07 04:33:53;;;;;;;6.20;2.33;;;21.60;44.00;;;;;;7389961;19;20015;-89
2022/08/07 04:36:22;;;;;;;4.90;2.35;;;21.70;44.00;;;;;;7391426;19;20039;-89
2022/08/07 04:38:54;;;;;;;7.18;2.55;;;21.70;44.00;;;;;;7388390;19;20031;-90
2022/08/07 04:41:22;;;;;;;3.17;1.92;;;21.80;43.90;;;;;;7387232;19;20072;-90
2022/08/07 04:43:52;;;;;;;4.03;1.92;;;21.80;43.90;;;;;;7385480;19;20018;-90
2022/08/07 04:46:29;;;;;;;5.90;2.20;;;21.80;44.00;;;;;;7402306;19;20014;-89
2022/08/07 04:49:15;;;;;;;4.00;1.95;;;21.80;44.00;;;;;;7385271;19;20019;-89
2022/08/07 04:51:55;;;;;;;8.90;2.25;;;21.80;44.00;;;;;;7389162;19;20019;-88
2022/08/07 04:54:33;;;;;;;4.88;1.92;;;21.90;44.00;;;;;;7388847;19;20046;-88
2022/08/07 04:57:12;;;;;;;18.38;1.77;;;21.90;43.90;;;;;;7399004;19;20007;-87
2022/08/07 04:59:48;;;;;;;4.70;1.90;;;21.80;44.00;;;;;;7405687;19;20031;-87
2022/08/07 05:02:26;;;;;;;3.85;1.77;;;21.80;44.00;;;;;;7404284;19;20162;-88
2022/08/07 05:05:00;;;;;;;1.65;1.55;;;21.80;44.00;;;;;;7384551;19;20018;-88
2022/08/07 05:07:38;;;;;;;2.55;1.58;;;21.80;44.00;;;;;;7381693;19;20036;-87
2022/08/07 05:10:13;;;;;;;1.90;1.30;;;21.80;44.10;;;;;;7398230;19;20165;-87
2022/08/07 05:12:50;;;;;;;6.13;1.83;;;21.80;44.20;;;;;;7380966;19;20015;-88
2022/08/07 05:15:25;;;;;;;4.90;1.80;;;21.80;44.10;;;;;;7383532;19;20098;-89
2022/08/07 05:17:58;;;;;;;2.50;1.65;;;21.80;44.20;;;;;;7385862;19;20031;-89
2022/08/07 05:20:32;;;;;;;4.03;1.85;;;21.80;44.30;;;;;;7397126;19;20025;-89
2022/08/07 05:23:08;;;;;;;2.08;1.45;;;21.80;44.50;;;;;;7398672;19;20481;-89
2022/08/07 05:25:44;;;;;;;3.05;1.60;;;21.80;44.40;;;;;;7382549;19;20437;-89
2022/08/07 05:28:16;;;;;;;3.33;1.70;;;21.80;44.40;;;;;;7404431;19;20027;-88
2022/08/07 05:30:46;;;;;;;6.32;1.92;;;21.80;44.30;;;;;;7379691;19;20085;-89
2022/08/07 05:33:16;;;;;;;4.18;1.50;;;21.90;44.50;;;;;;7383151;19;20014;-89
2022/08/07 05:35:46;;;;;;;7.38;1.60;;;21.80;44.50;;;;;;7382715;19;20335;-89
2022/08/07 05:38:15;;;;;;;3.72;1.52;;;21.70;44.50;;;;;;7388847;19;20018;-89
2022/08/07 05:40:47;;;;;;;3.88;1.60;;;21.80;44.60;;;;;;7380585;19;20014;-89
2022/08/07 05:43:16;;;;;;;4.15;1.40;;;21.80;44.40;;;;;;7397727;19;20011;-89
2022/08/07 05:45:45;;;;;;;2.78;1.45;;;21.90;44.40;;;;;;7373112;19;20045;-89
2022/08/07 05:48:15;;;;;;;4.07;1.65;;;21.80;44.30;;;;;;7375048;19;20013;-88
2022/08/07 05:50:45;;;;;;;2.95;1.70;;;21.90;44.50;;;;;;7375334;19;20208;-89
2022/08/07 05:53:13;;;;;;;4.85;1.52;;;21.90;44.40;;;;;;7377941;19;20334;-89
2022/08/07 05:55:42;;;;;;;1.77;1.40;;;21.90;44.50;;;;;;7377131;19;20018;-89
2022/08/07 05:58:15;;;;;;;3.45;1.67;;;22.00;44.60;;;;;;7402295;19;20021;-89
2022/08/07 06:00:48;;;;;;;10.70;1.85;;;22.00;44.50;;;;;;7381058;19;20056;-89
2022/08/07 06:03:20;;;;;;;5.28;1.80;;;22.10;44.60;;;;;;7379936;19;20126;-89
2022/08/07 06:05:50;;;;;;;2.75;1.65;;;22.00;44.70;;;;;;7387528;19;20021;-90
2022/08/07 06:08:19;;;;;;;6.60;1.77;;;22.00;44.70;;;;;;7386946;19;20032;-89
2022/08/07 06:10:48;;;;;;;5.03;1.50;;;22.00;44.60;;;;;;7386420;19;20051;-89
2022/08/07 06:13:19;;;;;;;4.93;1.85;;;21.90;44.70;;;;;;7417091;19;20027;-90
2022/08/07 06:15:50;;;;;;;5.85;1.88;;;22.00;44.90;;;;;;7397796;19;20031;-90
2022/08/07 06:18:20;;;;;;;3.25;1.63;;;22.10;44.80;;;;;;7401365;19;20067;-89
2022/08/07 06:20:49;;;;;;;7.43;2.08;;;22.00;44.50;;;;;;7391747;19;20015;-89
2022/08/07 06:23:18;;;;;;;2.25;1.40;;;22.00;44.70;;;;;;7393885;19;20026;-89
2022/08/07 06:25:47;;;;;;;4.25;1.45;;;21.80;44.80;;;;;;7395702;19;20027;-90
2022/08/07 06:28:19;;;;;;;9.70;1.52;;;21.90;45.00;;;;;;7414464;19;20014;-90
2022/08/07 06:30:47;;;;;;;;;;;22.00;44.70;;;;;;7399147;19;20015;-89
2022/08/07 06:33:16;;;;;;;7.10;1.50;;;22.00;44.40;;;;;;7396335;19;19914;-90
2022/08/07 06:35:45;;;;;;;5.20;1.67;;;22.10;44.30;;;;;;7393189;19;20022;-90
2022/08/07 06:38:13;;;;;;;4.13;1.63;;;22.20;44.20;;;;;;7391641;19;20039;-89
2022/08/07 06:40:51;;;;;;;5.07;1.67;;;22.20;44.20;;;;;;7384630;19;20434;-90
2022/08/07 06:43:28;;;;;;;5.95;1.63;;;22.30;43.80;;;;;;7405179;19;20056;-91
2022/08/07 06:45:57;;;;;;;3.38;1.13;;;22.30;43.80;;;;;;7381862;19;20101;-90
2022/08/07 06:48:25;;;;;;;4.47;1.50;;;22.30;43.70;;;;;;7390340;19;20027;-90
2022/08/07 06:50:56;;;;;;;2.20;1.23;;;22.40;43.50;;;;;;7400157;19;20026;-88
2022/08/07 06:53:27;;;;;;;2.20;1.52;;;22.50;43.60;;;;;;7402827;19;20018;-88
2022/08/07 06:55:57;;;;;;;4.70;1.50;;;22.40;43.40;;;;;;7392206;19;20011;-89
2022/08/07 06:58:30;;;;;;;6.07;1.55;;;22.50;43.40;;;;;;7398458;19;20414;-89
2022/08/07 07:01:00;;;;;;;3.60;1.70;;;22.60;43.70;;;;;;7380656;19;20043;-89
2022/08/07 07:03:29;;;;;;;4.15;1.67;;;22.50;43.40;;;;;;7391222;19;20015;-89
2022/08/07 07:05:58;;;;;;;3.83;1.60;;;22.50;43.50;;;;;;7386836;19;20485;-89
2022/08/07 07:08:28;;;;;;;7.90;1.80;;;22.60;43.60;;;;;;7386132;19;20019;-89
2022/08/07 07:10:57;;;;;;;4.30;1.25;;;22.70;43.30;;;;;;7383769;19;20074;-89
2022/08/07 07:13:34;;;;;;;2.95;1.25;;;22.60;43.30;;;;;;7405401;19;20022;-89
2022/08/07 07:16:09;;;;;;;4.07;1.30;;;22.70;43.10;;;;;;7381796;19;20031;-89
2022/08/07 07:18:46;;;;;;;4.20;1.45;;;22.70;42.90;;;;;;7383222;19;20465;-89
2022/08/07 07:21:22;;;;;;;3.17;1.30;;;22.70;42.80;;;;;;7401428;19;20007;-90
2022/08/07 07:23:51;;;;;;;1.42;1.10;;;22.70;43.50;;;;;;7395269;19;20014;-90
2022/08/07 07:26:23;;;;;;;3.15;1.60;;;22.70;42.30;;;;;;7384915;19;20044;-89
2022/08/07 07:28:57;;;;;;;3.05;1.40;;;22.70;42.60;;;;;;7387857;19;20038;-90
2022/08/07 07:31:33;;;;;;;3.97;1.20;;;22.80;42.70;;;;;;7410415;19;20043;-89
2022/08/07 07:34:06;;;;;;;2.42;1.10;;;22.70;42.10;;;;;;7386793;19;20304;-90
2022/08/07 07:36:36;;;;;;;7.82;1.17;;;22.80;42.20;;;;;;7381855;19;20018;-90
2022/08/07 07:39:07;;;;;;;3.17;1.17;;;22.80;41.90;;;;;;7381953;19;20039;-89
2022/08/07 07:41:37;;;;;;;1.95;0.98;;;22.80;42.20;;;;;;7384461;19;20010;-90
2022/08/07 07:44:10;;;;;;;2.13;1.10;;;22.80;42.10;;;;;;7383871;19;20128;-89
2022/08/07 07:46:43;;;;;;;4.88;1.20;;;23.00;42.10;;;;;;7383153;19;20255;-89
2022/08/07 07:49:16;;;;;;;4.25;1.33;;;23.10;41.80;;;;;;7404121;19;20090;-88
2022/08/07 07:51:47;;;;;;;2.42;1.25;;;23.10;41.60;;;;;;7382813;19;20015;-89
2022/08/07 07:54:18;;;;;;;3.65;1.10;;;23.00;41.30;;;;;;7384972;19;20050;-89
2022/08/07 07:56:47;;;;;;;;;;;23.00;41.50;;;;;;7386274;19;20014;-89
2022/08/07 07:59:21;;;;;;;2.33;1.02;;;23.10;41.50;;;;;;7397297;19;19915;-89
2022/08/07 08:01:51;;;;;;;1.52;1.17;;;23.10;41.50;;;;;;7399136;19;20045;-88
2022/08/07 08:04:21;;;;;;;4.60;1.55;;;23.20;41.50;;;;;;7409924;19;20089;-88
2022/08/07 08:06:51;;;;;;;1.42;1.00;;;23.10;41.00;;;;;;7373305;19;20115;-78
2022/08/07 08:09:23;;;;;;;4.03;1.27;;;23.10;41.10;;;;;;7368884;19;20081;-82
2022/08/07 08:11:56;;;;;;;3.22;1.10;;;23.20;41.20;;;;;;7372279;19;20350;-81
2022/08/07 08:14:27;;;;;;;2.65;1.23;;;23.40;41.00;;;;;;7370757;19;20029;-79
2022/08/07 08:16:58;;;;;;;;;;;23.40;40.80;;;;;;7371219;19;20086;-81
2022/08/07 08:19:29;;;;;;;4.45;1.00;;;23.30;40.70;;;;;;7389477;19;19982;-78
2022/08/07 08:27:30;;;;;;;4.05;0.90;;;23.20;40.80;;;;;;7370919;19;20077;-78
2022/08/07 08:30:05;;;;;;;1.10;0.80;;;23.30;40.60;;;;;;7370821;19;20198;-78
2022/08/07 08:32:38;;;;;;;2.38;1.00;;;23.40;39.80;;;;;;7369594;19;20031;-79
2022/08/07 08:35:10;;;;;;;0.85;0.82;;;23.40;39.50;;;;;;7370140;19;20102;-80
2022/08/07 08:37:40;;;;;;;1.77;0.88;;;23.50;39.80;;;;;;7370643;19;20612;-80
2022/08/07 08:40:15;;;;;;;6.47;1.17;;;23.60;39.60;;;;;;7391367;19;20094;-80
2022/08/07 08:42:51;;;;;;;4.55;0.95;;;23.70;39.70;;;;;;7370828;19;20757;-80
2022/08/07 08:45:30;;;;;;;1.17;0.80;;;23.60;40.00;;;;;;7369416;19;20973;-81
2022/08/07 08:48:10;;;;;;;1.88;1.10;;;23.40;39.30;;;;;;7371649;19;20018;-80
2022/08/07 08:50:42;;;;;;;3.15;0.88;;;23.40;39.30;;;;;;7370023;19;20029;-80
2022/08/07 08:53:18;;;;;;;1.98;1.00;;;23.50;39.70;;;;;;7371309;19;20035;-79
2022/08/07 08:55:51;;;;;;;1.20;1.02;;;23.50;39.60;;;;;;7369326;19;20446;-79
2022/08/07 08:58:31;;;;;;;1.17;0.75;;;23.50;39.10;;;;;;7388086;19;20098;-79
2022/08/07 09:01:08;;;;;;;1.52;0.88;;;23.70;39.40;;;;;;7369210;19;20113;-81
2022/08/07 09:03:46;;;;;;;2.20;0.70;;;23.70;39.10;;;;;;7372094;19;20035;-81
2022/08/07 09:06:24;;;;;;;5.22;1.10;;;23.90;38.90;;;;;;7371380;19;20081;-80
2022/08/07 09:09:04;;;;;;;1.42;0.90;;;23.70;38.60;;;;;;7370152;19;20015;-82
2022/08/07 09:11:41;;;;;;;2.10;0.83;;;23.60;38.20;;;;;;7369481;19;20006;-79
2022/08/07 09:14:16;;;;;;;2.63;0.85;;;23.70;38.70;;;;;;7371127;19;20088;-81
2022/08/07 09:16:58;;;;;;;2.83;1.08;;;23.80;39.30;;;;;;7368374;19;20011;-79
2022/08/07 09:19:47;;;;;;;1.30;0.90;;;23.90;38.40;;;;;;7390834;19;20380;-82
2022/08/07 09:22:35;;;;;;;5.60;1.55;;;23.90;38.00;;;;;;7370691;19;20082;-82
2022/08/07 09:25:12;;;;;;;3.80;1.00;;;24.00;38.60;;;;;;7370098;19;20147;-86
2022/08/07 09:27:47;;;;;;;2.88;1.10;;;23.60;37.60;;;;;;7363921;19;20551;-86
2022/08/07 09:30:17;;;;;;;1.95;0.77;;;23.70;37.90;;;;;;7368436;19;20014;-85
2022/08/07 09:33:10;;;;;;;1.02;0.90;;;23.60;37.50;;;;;;7370839;19;20027;-86
2022/08/07 09:35:46;;;;;;;2.25;0.80;;;23.70;37.70;;;;;;7372399;19;20046;-86
2022/08/07 09:38:27;;;;;;;3.53;1.10;;;23.60;37.50;;;;;;7372236;19;20102;-86
2022/08/07 09:41:06;;;;;;;1.20;0.77;;;23.80;37.60;;;;;;7370604;19;20097;-86
2022/08/07 09:43:59;;;;;;;3.65;1.00;;;24.00;37.50;;;;;;7369731;19;20399;-85
2022/08/07 09:46:40;;;;;;;0.88;0.77;;;24.10;36.90;;;;;;7386621;19;20087;-82
2022/08/07 09:49:20;;;;;;;2.20;1.10;;;24.20;36.80;;;;;;7391510;19;20039;-85
2022/08/07 09:52:10;;;;;;;1.95;0.75;;;24.30;36.50;;;;;;7369221;19;20098;-85
2022/08/07 09:54:46;;;;;;;5.28;0.80;;;24.30;36.40;;;;;;7369964;19;20015;-85
2022/08/07 09:57:45;;;;;;;2.03;1.10;;;24.40;36.00;;;;;;7372335;19;20090;-85
2022/08/07 10:00:17;;;;;;;5.90;1.23;;;24.40;36.20;;;;;;7370699;19;20628;-86
2022/08/07 10:03:15;;;;;;;4.65;1.00;;;24.50;36.30;;;;;;7369593;19;20105;-86
2022/08/07 10:06:10;;;;;;;3.70;1.10;;;24.60;36.10;;;;;;7370629;19;20015;-85
2022/08/07 10:09:05;;;;;;;3.95;1.33;;;24.60;36.10;;;;;;7368947;19;20137;-85
2022/08/07 10:11:49;;;;;;;1.52;0.82;;;24.70;36.00;;;;;;7370687;19;20092;-85
2022/08/07 10:14:47;;;;;;;4.32;1.20;;;24.70;35.70;;;;;;7371479;19;20019;-84
2022/08/07 10:17:38;;;;;;;2.70;1.20;;;24.70;35.50;;;;;;7370371;19;20036;-85
2022/08/07 10:20:16;;;;;;;2.42;1.00;;;24.70;36.30;;;;;;7367858;19;20027;-86
2022/08/07 10:23:02;;;;;;;3.28;1.40;;;24.70;35.50;;;;;;7371747;19;20026;-85
2022/08/07 10:25:44;;;;;;;1.77;1.08;;;24.80;36.10;;;;;;7372779;19;20086;-85
2022/08/07 10:28:38;;;;;;;4.40;2.15;;;24.80;35.80;;;;;;7400147;19;20085;-86
2022/08/07 10:31:29;;;;;;;3.53;1.23;;;24.80;36.10;;;;;;7375706;19;20019;-85
2022/08/07 10:34:09;;;;;;;7.60;1.33;;;24.90;36.00;;;;;;7374124;19;20441;-86
2022/08/07 10:36:50;;;;;;;2.85;1.10;;;24.80;36.80;;;;;;7378474;19;20082;-85
2022/08/07 10:39:35;;;;;;;1.80;1.20;;;24.90;36.20;;;;;;7387317;19;20078;-86
2022/08/07 10:42:24;;;;;;;3.40;1.17;;;25.00;36.40;;;;;;7387062;19;20018;-85
2022/08/07 10:45:02;;;;;;;1.45;0.95;;;25.00;35.50;;;;;;7387374;19;20022;-85
2022/08/07 10:47:42;;;;;;;4.60;1.30;;;25.10;35.40;;;;;;7385132;19;20024;-85
2022/08/07 10:50:15;;;;;;;2.35;1.23;;;25.20;35.90;;;;;;7381298;19;20055;-86
2022/08/07 10:52:53;;;;;;;2.58;1.05;;;25.30;35.70;;;;;;7380324;19;20018;-86
2022/08/07 10:55:31;;;;;;;1.75;1.10;;;25.40;35.30;;;;;;7404096;19;20022;-86
2022/08/07 10:58:11;;;;;;;1.38;1.02;;;25.50;35.20;;;;;;7380123;19;20031;-86
2022/08/07 11:00:52;;;;;;;4.97;1.42;;;25.60;35.10;;;;;;7378881;19;20014;-86
2022/08/07 11:03:33;;;;;;;1.70;1.00;;;25.60;34.20;;;;;;7381713;19;20006;-86
2022/08/07 11:06:12;;;;;;;3.97;1.10;;;25.70;34.50;;;;;;7380547;19;20026;-86
2022/08/07 11:08:50;;;;;;;3.28;1.20;;;25.80;34.60;;;;;;7380087;19;20036;-86
2022/08/07 11:11:29;;;;;;;5.63;1.20;;;25.60;34.50;;;;;;7375570;19;20028;-87
2022/08/07 11:14:06;;;;;;;3.03;1.10;;;25.70;35.10;;;;;;7378120;19;20018;-88
2022/08/07 11:16:38;;;;;;;2.00;1.00;;;25.80;34.50;;;;;;7375279;19;20018;-86
2022/08/07 11:19:19;;;;;;;2.35;1.25;;;26.00;34.40;;;;;;7399950;19;20019;-88
2022/08/07 11:21:57;;;;;;;1.75;1.00;;;26.00;34.20;;;;;;7375609;19;20074;-88
2022/08/07 11:24:35;;;;;;;3.83;1.40;;;26.10;33.80;;;;;;7377841;19;20051;-89
2022/08/07 11:27:15;;;;;;;2.55;1.30;;;26.10;33.60;;;;;;7378683;19;20248;-87
2022/08/07 11:29:51;;;;;;;2.92;1.30;;;26.20;33.80;;;;;;7377200;19;20101;-87
2022/08/07 11:32:24;;;;;;;9.18;1.25;;;26.20;33.60;;;;;;7375270;19;20055;-88
2022/08/07 11:34:58;;;;;;;5.05;1.30;;;26.20;33.40;;;;;;7381498;19;20801;-88
2022/08/07 11:37:46;;;;;;;4.68;1.70;;;26.30;33.50;;;;;;7401296;19;20753;-89
2022/08/07 11:40:24;;;;;;;4.10;1.27;;;26.30;33.40;;;;;;7381334;19;20050;-89
2022/08/07 11:43:02;;;;;;;3.38;1.40;;;26.30;33.40;;;;;;7380931;19;20032;-88
2022/08/07 11:45:41;;;;;;;1.60;1.20;;;26.20;33.60;;;;;;7377545;19;20085;-89
2022/08/07 11:48:24;;;;;;;3.30;1.48;;;26.30;34.10;;;;;;7380217;19;20022;-89
2022/08/07 11:51:05;;;;;;;3.15;1.42;;;26.30;34.00;;;;;;7379363;19;20058;-89
2022/08/07 11:53:46;;;;;;;5.45;1.50;;;26.30;34.00;;;;;;7378071;19;20050;-87
2022/08/07 11:56:35;;;;;;;3.25;1.30;;;26.40;33.60;;;;;;7378980;19;20019;-87
2022/08/07 11:59:25;;;;;;;3.90;1.42;;;26.40;33.60;;;;;;7379504;19;20066;-87
2022/08/07 12:02:02;;;;;;;4.63;1.42;;;26.40;32.90;;;;;;7378497;19;20017;-88
2022/08/07 12:04:47;;;;;;;3.30;1.30;;;26.40;32.90;;;;;;7379925;19;20380;-87
2022/08/07 12:07:25;;;;;;;10.13;1.92;;;26.20;32.50;;;;;;7403791;19;20094;-87
2022/08/07 12:10:02;;;;;;;13.63;2.50;;;26.20;32.90;;;;;;7382177;19;20077;-88
2022/08/07 12:12:39;;;;;;;8.07;2.33;;;26.40;33.30;;;;;;7391189;19;20014;-88
2022/08/07 12:15:16;;;;;;;10.00;2.20;;;26.50;32.70;;;;;;7381035;19;20018;-88
2022/08/07 12:17:51;;;;;;;7.38;3.35;;;26.60;33.10;;;;;;7383292;19;20072;-90
2022/08/07 12:20:29;;;;;;;1.77;1.33;;;26.50;33.90;;;;;;7378899;19;20024;-88
2022/08/07 12:23:20;;;;;;;5.80;1.77;;;26.60;33.70;;;;;;7393210;19;20086;-86
2022/08/07 12:25:55;;;;;;;12.63;1.80;;;26.60;33.00;;;;;;7387306;19;20360;-90
2022/08/07 12:28:29;;;;;;;3.88;1.90;;;26.70;32.40;;;;;;7406768;19;20018;-90
2022/08/07 12:30:59;;;;;;;4.55;2.10;;;26.80;32.30;;;;;;7311181;19;20030;31
2022/08/07 12:33:33;;;;;;;5.97;2.97;;;26.80;32.60;;;;;;7405357;19;20022;-88
2022/08/07 12:36:06;;;;;;;11.43;6.05;;;26.90;32.80;;;;;;7392212;19;20110;-90
2022/08/07 12:38:35;;;;;;;3.60;1.80;;;27.00;33.20;;;;;;7382174;19;20022;-89
2022/08/07 12:41:05;;;;;;;3.60;1.90;;;27.00;32.60;;;;;;7405480;19;20041;-90
2022/08/07 12:43:36;;;;;;;2.28;1.67;;;27.10;32.30;;;;;;7398664;19;20006;-87
2022/08/07 12:46:09;;;;;;;;;;;27.00;31.70;;;;;;7412175;19;20011;-90
2022/08/07 12:48:49;;;;;;;5.28;2.20;;;27.00;32.30;;;;;;7406793;19;19996;-90
2022/08/07 12:51:21;;;;;;;8.73;2.72;;;27.00;32.30;;;;;;7363411;19;20098;-90
2022/08/07 12:53:56;;;;;;;13.30;5.35;;;27.10;31.80;;;;;;7373076;19;20407;-92
2022/08/07 12:56:30;;;;;;;18.80;9.70;;;27.20;32.20;;;;;;7351980;19;20023;-90
2022/08/07 13:04:31;;;;;;;15.15;8.73;;;27.50;31.00;;;;;;7355835;19;20054;-90
2022/08/07 13:07:39;;;;;;;11.98;6.10;;;27.50;31.40;;;;;;7382581;19;20134;-90
2022/08/07 13:10:33;;;;;;;3.38;2.08;;;27.60;32.00;;;;;;7377475;19;20035;-90
2022/08/07 13:13:38;;;;;;;2.67;1.70;;;27.70;31.90;;;;;;7382600;19;20015;-91
2022/08/07 13:16:17;;;;;;;4.05;2.92;;;27.70;32.40;;;;;;7382599;19;20026;-90
2022/08/07 13:18:55;;;;;;;6.05;2.80;;;27.60;32.10;;;;;;7380530;19;20014;-91
2022/08/07 13:21:30;;;;;;;3.42;1.80;;;27.70;32.20;;;;;;7386394;19;20018;-92
2022/08/07 13:24:04;;;;;;;2.33;1.45;;;27.70;31.90;;;;;;7385679;19;20051;-90
2022/08/07 13:26:40;;;;;;;3.50;1.70;;;27.70;31.80;;;;;;7382090;19;20010;-89
2022/08/07 13:29:15;;;;;;;5.70;1.30;;;27.60;32.00;;;;;;7378004;19;20026;-91
2022/08/07 13:31:50;;;;;;;4.10;1.50;;;27.60;32.70;;;;;;7382763;19;20019;-92
2022/08/07 13:34:41;;;;;;;3.50;1.52;;;27.80;32.40;;;;;;7422655;19;20015;-92
2022/08/07 13:37:25;;;;;;;5.28;1.38;;;27.80;31.70;;;;;;7402800;19;20018;-91